createdAt,value
2018-07-31T00:00:01.867Z,98316.39
2018-07-31T00:02:30.345Z,98305.83
2018-07-31T00:04:58.899Z,98303.11
2018-07-31T00:07:27.408Z,98308.20
2018-07-31T00:09:55.882Z,98308.93
2018-07-31T00:12:24.352Z,98313.91
2018-07-31T00:14:52.886Z,98313.38
2018-07-31T00:17:21.323Z,98316.37
2018-07-31T00:19:49.786Z,98318.16
2018-07-31T00:22:18.336Z,98314.44
2018-07-31T00:24:46.831Z,98316.31
2018-07-31T00:27:15.580Z,98310.83
2018-07-31T00:29:44.010Z,98312.14
2018-07-31T00:32:13.838Z,98315.13
2018-07-31T00:34:42.538Z,98312.17
2018-07-31T00:37:11.245Z,98303.59
2018-07-31T00:39:39.697Z,98303.45
2018-07-31T00:42:08.310Z,98309.08
2018-07-31T00:44:36.767Z,98307.88
2018-07-31T00:47:05.377Z,98309.17
2018-07-31T00:49:33.863Z,98305.06
2018-07-31T00:52:02.328Z,98307.52
2018-07-31T00:54:31.086Z,98294.34
2018-07-31T00:56:59.537Z,98293.47
2018-07-31T00:59:28.037Z,98304.19
2018-07-31T01:01:56.501Z,98293.13
2018-07-31T01:04:24.937Z,98304.83
2018-07-31T01:06:53.443Z,98307.84
2018-07-31T01:09:21.980Z,98304.41
2018-07-31T01:11:50.444Z,98303.06
2018-07-31T01:14:18.960Z,98301.71
2018-07-31T01:16:47.463Z,98304.98
2018-07-31T01:19:15.885Z,98302.23
2018-07-31T01:21:44.431Z,98290.83
2018-07-31T01:24:12.924Z,98293.48
2018-07-31T01:26:41.428Z,98296.15
2018-07-31T01:29:10.036Z,98291.29
2018-07-31T01:31:38.600Z,98293.48
2018-07-31T01:34:07.111Z,98296.61
2018-07-31T01:36:35.574Z,98301.96
2018-07-31T01:39:05.138Z,98304.84
2018-07-31T01:41:33.566Z,98308.23
2018-07-31T01:44:02.185Z,98304.04
2018-07-31T01:46:30.649Z,98307.08
2018-07-31T01:48:59.283Z,98299.48
2018-07-31T01:51:27.737Z,98298.06
2018-07-31T01:53:56.223Z,98301.55
2018-07-31T01:56:25.003Z,98297.19
2018-07-31T01:58:53.447Z,98294.99
2018-07-31T02:01:21.967Z,98292.17
2018-07-31T02:03:50.612Z,98289.84
2018-07-31T02:06:23.411Z,98292.83
2018-07-31T02:08:51.870Z,98296.11
2018-07-31T02:11:20.349Z,98286.89
2018-07-31T02:13:48.803Z,98294.20
2018-07-31T02:16:18.271Z,98293.17
2018-07-31T02:18:46.742Z,98291.00
2018-07-31T02:21:15.271Z,98299.59
2018-07-31T02:23:43.734Z,98301.77
2018-07-31T02:26:12.200Z,98299.33
2018-07-31T02:28:40.716Z,98289.56
2018-07-31T02:31:09.153Z,98286.01
2018-07-31T02:33:37.631Z,98289.07
2018-07-31T02:36:06.114Z,98296.30
2018-07-31T02:38:34.567Z,98293.59
2018-07-31T02:41:03.282Z,98254.30
2018-07-31T02:43:31.695Z,98287.48
2018-07-31T02:46:00.315Z,98294.45
2018-07-31T02:48:28.844Z,98287.11
2018-07-31T02:50:57.331Z,98292.74
2018-07-31T02:53:26.036Z,98298.37
2018-07-31T02:55:54.460Z,98292.09
2018-07-31T02:58:23.012Z,98294.84
2018-07-31T03:00:51.418Z,98285.37
2018-07-31T03:03:19.867Z,98289.99
2018-07-31T03:05:48.357Z,98286.55
2018-07-31T03:08:16.857Z,98290.95
2018-07-31T03:10:45.299Z,98288.27
2018-07-31T03:13:13.729Z,98291.83
2018-07-31T03:15:42.417Z,98291.53
2018-07-31T03:18:10.911Z,98296.06
2018-07-31T03:20:39.333Z,98297.83
2018-07-31T03:23:07.811Z,98286.70
2018-07-31T03:25:36.292Z,98290.69
2018-07-31T03:28:04.765Z,98289.86
2018-07-31T03:30:33.230Z,98282.35
2018-07-31T03:33:01.658Z,98294.26
2018-07-31T03:35:30.075Z,98295.24
2018-07-31T03:37:58.591Z,98297.41
2018-07-31T03:40:27.044Z,98293.92
2018-07-31T03:42:55.922Z,98301.58
2018-07-31T03:45:24.386Z,98300.20
2018-07-31T03:47:52.913Z,98304.28
2018-07-31T03:50:21.391Z,98302.66
2018-07-31T03:52:49.805Z,98302.66
2018-07-31T03:55:18.249Z,98298.75
2018-07-31T03:57:46.711Z,98305.16
2018-07-31T04:00:15.839Z,98307.85
2018-07-31T04:02:44.444Z,98309.68
2018-07-31T04:05:13.136Z,98312.48
2018-07-31T04:07:41.607Z,98313.77
2018-07-31T04:10:10.033Z,98316.75
2018-07-31T04:12:38.692Z,98321.95
2018-07-31T04:15:07.122Z,98322.60
2018-07-31T04:17:35.590Z,98328.76
2018-07-31T04:20:04.161Z,98328.68
2018-07-31T04:22:33.132Z,98329.56
2018-07-31T04:25:01.859Z,98320.30
2018-07-31T04:27:30.723Z,98319.39
2018-07-31T04:29:59.189Z,98322.66
2018-07-31T04:32:27.709Z,98321.42
2018-07-31T04:34:56.513Z,98321.72
2018-07-31T04:37:24.978Z,98323.22
2018-07-31T04:39:53.728Z,98321.11
2018-07-31T04:42:22.255Z,98319.00
2018-07-31T04:44:50.688Z,98310.34
2018-07-31T04:47:19.172Z,98313.86
2018-07-31T04:49:47.651Z,98316.97
2018-07-31T04:52:16.116Z,98310.80
2018-07-31T04:54:44.792Z,98311.30
2018-07-31T04:57:13.206Z,98314.86
2018-07-31T04:59:41.918Z,98314.71
2018-07-31T05:02:10.375Z,98323.70
2018-07-31T05:04:38.818Z,98318.75
2018-07-31T05:07:07.339Z,98323.34
2018-07-31T05:09:35.804Z,98325.92
2018-07-31T05:12:04.524Z,98319.99
2018-07-31T05:14:33.008Z,98319.80
2018-07-31T05:17:01.464Z,98317.84
2018-07-31T05:19:29.933Z,98319.91
2018-07-31T05:21:58.384Z,98322.16
2018-07-31T05:24:26.863Z,98326.19
2018-07-31T05:26:55.305Z,98327.80
2018-07-31T05:29:23.781Z,98330.30
2018-07-31T05:31:52.264Z,98334.88
2018-07-31T05:34:20.698Z,98328.61
2018-07-31T05:36:49.256Z,98326.59
2018-07-31T05:39:17.784Z,98333.58
2018-07-31T05:41:46.255Z,98336.33
2018-07-31T05:44:14.711Z,98337.56
2018-07-31T05:46:43.225Z,98338.17
2018-07-31T05:49:11.682Z,98342.52
2018-07-31T05:51:40.121Z,98342.09
2018-07-31T05:57:07.827Z,98350.16
2018-07-31T05:59:36.280Z,98351.08
2018-07-31T06:02:04.888Z,98348.11
2018-07-31T06:04:33.385Z,98345.87
2018-07-31T06:07:01.828Z,98345.80
2018-07-31T06:09:30.266Z,98344.41
2018-07-31T06:11:58.699Z,98352.73
2018-07-31T06:14:27.383Z,98347.69
2018-07-31T06:16:55.839Z,98353.64
2018-07-31T06:19:24.261Z,98355.11
2018-07-31T06:21:53.093Z,98355.07
2018-07-31T06:24:21.503Z,98349.82
2018-07-31T06:26:50.343Z,98350.72
2018-07-31T06:29:18.813Z,98355.20
2018-07-31T06:31:47.252Z,98355.78
2018-07-31T06:34:15.686Z,98357.69
2018-07-31T06:36:44.119Z,98360.02
2018-07-31T06:39:12.735Z,98353.14
2018-07-31T06:41:41.186Z,98356.09
2018-07-31T06:44:09.655Z,98352.02
2018-07-31T06:46:38.656Z,98347.37
2018-07-31T06:49:07.174Z,98343.81
2018-07-31T06:51:35.868Z,98347.73
2018-07-31T06:54:04.385Z,98348.81
2018-07-31T06:56:32.944Z,98349.20
2018-07-31T06:59:01.407Z,98357.91
2018-07-31T07:01:29.889Z,98353.77
2018-07-31T07:03:58.600Z,98356.05
2018-07-31T07:06:27.047Z,98354.33
2018-07-31T07:08:55.516Z,98352.28
2018-07-31T07:11:23.967Z,98357.20
2018-07-31T07:13:52.437Z,98347.92
2018-07-31T07:16:20.930Z,98353.56
2018-07-31T07:18:49.927Z,98351.20
2018-07-31T07:21:18.404Z,98351.41
2018-07-31T07:23:46.849Z,98345.50
2018-07-31T07:26:15.517Z,98352.52
2018-07-31T07:28:43.930Z,98344.72
2018-07-31T07:31:12.344Z,98348.06
2018-07-31T07:33:40.785Z,98338.06
2018-07-31T07:36:09.210Z,98350.45
2018-07-31T07:38:38.576Z,98339.00
2018-07-31T07:41:07.496Z,98333.40
2018-07-31T07:43:35.944Z,98341.41
2018-07-31T07:46:04.593Z,98343.12
2018-07-31T07:48:33.035Z,98337.47
2018-07-31T07:51:01.519Z,98344.48
2018-07-31T07:53:30.068Z,98343.28
2018-07-31T07:55:58.456Z,98345.83
2018-07-31T07:58:27.094Z,98340.39
2018-07-31T08:00:55.777Z,98343.08
2018-07-31T08:03:24.250Z,98337.64
2018-07-31T08:05:53.268Z,98341.03
2018-07-31T08:08:21.844Z,98339.82
2018-07-31T08:10:50.527Z,98349.19
2018-07-31T08:13:19.207Z,98350.22
2018-07-31T08:15:47.679Z,98341.37
2018-07-31T08:18:16.130Z,98348.45
2018-07-31T08:20:44.594Z,98348.11
2018-07-31T08:23:13.376Z,98349.58
2018-07-31T08:25:42.105Z,98356.35
2018-07-31T08:28:10.772Z,98350.43
2018-07-31T08:30:39.210Z,98353.47
2018-07-31T08:33:07.803Z,98351.62
2018-07-31T08:35:36.286Z,98349.96
2018-07-31T08:38:04.855Z,98353.36
2018-07-31T08:40:33.404Z,98351.79
2018-07-31T08:43:01.904Z,98357.87
2018-07-31T08:45:30.711Z,98360.58
2018-07-31T08:47:59.165Z,98357.66
2018-07-31T08:50:27.724Z,98361.94
2018-07-31T08:52:56.235Z,98356.67
2018-07-31T08:55:26.264Z,98361.09
2018-07-31T08:57:54.762Z,98354.33
2018-07-31T09:00:23.246Z,98354.40
2018-07-31T09:02:51.780Z,98356.33
2018-07-31T09:05:20.399Z,98355.13
2018-07-31T09:07:48.808Z,98349.34
2018-07-31T09:10:17.503Z,98352.80
2018-07-31T09:12:46.203Z,98346.42
2018-07-31T09:15:15.071Z,98344.48
2018-07-31T09:17:43.510Z,98342.74
2018-07-31T09:20:11.916Z,98341.70
2018-07-31T09:22:40.347Z,98340.06
2018-07-31T09:25:09.055Z,98337.19
2018-07-31T09:27:37.518Z,98336.30
2018-07-31T09:30:06.674Z,98331.36
2018-07-31T09:32:40.470Z,98336.53
2018-07-31T09:35:08.919Z,98334.25
2018-07-31T09:37:37.732Z,98324.02
2018-07-31T09:40:06.193Z,98321.81
2018-07-31T09:42:34.784Z,98322.32
2018-07-31T09:45:03.272Z,98311.31
2018-07-31T09:47:31.704Z,98315.84
2018-07-31T09:50:00.136Z,98314.51
2018-07-31T09:52:28.587Z,98311.18
2018-07-31T09:54:57.058Z,98311.45
2018-07-31T09:57:25.724Z,98307.10
2018-07-31T09:59:54.376Z,98312.62
2018-07-31T10:02:23.062Z,98311.11
2018-07-31T10:04:51.498Z,98305.39
2018-07-31T10:07:20.134Z,98306.64
2018-07-31T10:10:18.999Z,98303.13
2018-07-31T10:12:47.427Z,98302.63
2018-07-31T10:15:15.839Z,98298.92
2018-07-31T10:17:44.380Z,98290.48
2018-07-31T10:20:12.764Z,98290.09
2018-07-31T10:22:41.204Z,98289.42
2018-07-31T10:25:09.607Z,98289.23
2018-07-31T10:27:38.455Z,98281.52
2018-07-31T10:30:07.671Z,98287.33
2018-07-31T10:32:36.182Z,98279.38
2018-07-31T10:35:05.159Z,98277.48
2018-07-31T10:37:33.602Z,98278.32
2018-07-31T10:40:02.077Z,98276.15
2018-07-31T10:42:30.528Z,98279.38
2018-07-31T10:44:59.111Z,98275.11
2018-07-31T10:47:27.756Z,98273.06
2018-07-31T10:49:56.422Z,98269.84
2018-07-31T10:52:25.229Z,98270.11
2018-07-31T10:54:53.652Z,98279.79
2018-07-31T10:57:22.079Z,98278.58
2018-07-31T10:59:50.638Z,98271.20
2018-07-31T11:02:19.000Z,98272.56
2018-07-31T11:04:47.483Z,98273.68
2018-07-31T11:07:15.903Z,98269.37
2018-07-31T11:09:44.388Z,98267.78
2018-07-31T11:12:13.263Z,98263.81
2018-07-31T11:14:41.741Z,98266.22
2018-07-31T11:17:10.239Z,98264.94
2018-07-31T11:19:38.681Z,98263.15
2018-07-31T11:22:07.169Z,98262.09
2018-07-31T11:24:35.647Z,98254.86
2018-07-31T11:27:04.175Z,98240.05
2018-07-31T11:30:35.591Z,98236.68
2018-07-31T11:33:04.124Z,98243.09
2018-07-31T11:35:32.590Z,98246.70
2018-07-31T11:38:01.118Z,98234.36
2018-07-31T11:40:29.587Z,98232.59
2018-07-31T11:42:58.043Z,98230.15
2018-07-31T11:45:26.525Z,98224.44
2018-07-31T11:47:54.948Z,98229.01
2018-07-31T11:50:23.356Z,98229.53
2018-07-31T11:52:52.958Z,98226.36
2018-07-31T11:55:21.392Z,98225.45
2018-07-31T11:57:50.044Z,98232.94
2018-07-31T12:00:18.678Z,98225.03
2018-07-31T12:02:47.143Z,98221.39
2018-07-31T12:05:15.786Z,98222.77
2018-07-31T12:07:44.262Z,98214.73
2018-07-31T12:10:12.745Z,98217.06
2018-07-31T12:12:41.149Z,98214.64
2018-07-31T12:15:09.609Z,98203.72
2018-07-31T12:17:38.098Z,98209.17
2018-07-31T12:20:06.792Z,98219.59
2018-07-31T12:22:35.258Z,98204.22
2018-07-31T12:25:03.732Z,98212.88
2018-07-31T12:27:33.144Z,98213.08
2018-07-31T12:30:01.590Z,98216.84
2018-07-31T12:32:30.053Z,98215.39
2018-07-31T12:34:58.508Z,98211.73
2018-07-31T12:37:26.963Z,98210.65
2018-07-31T12:39:55.417Z,98211.02
2018-07-31T12:42:38.710Z,98208.42
2018-07-31T12:45:07.235Z,98208.91
2018-07-31T12:47:36.509Z,98203.86
2018-07-31T12:50:05.572Z,98211.64
2018-07-31T12:52:34.056Z,98206.54
2018-07-31T12:55:02.695Z,98205.71
2018-07-31T12:57:31.675Z,98210.66
2018-07-31T13:00:00.163Z,98206.27
2018-07-31T13:02:28.600Z,98202.38
2018-07-31T13:04:57.223Z,98201.58
2018-07-31T13:07:25.672Z,98191.37
2018-07-31T13:09:54.138Z,98198.23
2018-07-31T13:12:22.557Z,98201.19
2018-07-31T13:14:51.066Z,98194.95
2018-07-31T13:17:19.464Z,98195.27
2018-07-31T13:19:48.078Z,98192.60
2018-07-31T13:22:16.538Z,98195.13
2018-07-31T13:24:44.956Z,98190.57
2018-07-31T13:27:13.402Z,98189.41
2018-07-31T13:29:41.831Z,98195.55
2018-07-31T13:32:10.636Z,98187.39
2018-07-31T13:34:39.086Z,98182.62
2018-07-31T13:37:08.009Z,98183.27
2018-07-31T13:39:36.433Z,98174.41
2018-07-31T13:42:05.081Z,98188.56
2018-07-31T13:44:33.775Z,98185.02
2018-07-31T13:47:02.167Z,98179.77
2018-07-31T13:49:30.646Z,98179.97
2018-07-31T13:51:59.119Z,98173.15
2018-07-31T13:54:27.589Z,98175.71
2018-07-31T13:56:56.046Z,98186.31
2018-07-31T13:59:24.511Z,98179.64
2018-07-31T14:01:53.046Z,98171.97
2018-07-31T14:04:21.768Z,98187.64
2018-07-31T14:06:50.413Z,98174.89
2018-07-31T14:09:18.818Z,98177.99
2018-07-31T14:11:47.504Z,98171.75
2018-07-31T14:14:15.983Z,98168.03
2018-07-31T14:16:44.415Z,98173.14
2018-07-31T14:19:12.865Z,98165.72
2018-07-31T14:21:41.355Z,98170.98
2018-07-31T14:24:09.804Z,98171.92
2018-07-31T14:26:38.242Z,98164.73
2018-07-31T14:29:06.687Z,98162.45
2018-07-31T14:31:35.138Z,98171.39
2018-07-31T14:34:03.700Z,98168.69
2018-07-31T14:36:32.158Z,98172.45
2018-07-31T14:39:00.603Z,98163.70
2018-07-31T14:41:43.529Z,98168.14
2018-07-31T14:44:12.036Z,98165.05
2018-07-31T14:46:40.517Z,98166.11
2018-07-31T14:49:09.167Z,98169.18
2018-07-31T14:51:37.666Z,98160.36
2018-07-31T14:54:08.088Z,98157.52
2018-07-31T14:56:36.507Z,98156.82
2018-07-31T14:59:05.301Z,98161.06
2018-07-31T15:01:33.782Z,98157.53
2018-07-31T15:04:02.578Z,98167.13
2018-07-31T15:06:31.028Z,98162.85
2018-07-31T15:08:59.648Z,98161.09
2018-07-31T15:11:28.066Z,98161.38
2018-07-31T15:13:56.508Z,98162.37
2018-07-31T15:16:25.099Z,98159.58
2018-07-31T15:18:53.512Z,98158.92
2018-07-31T15:21:22.049Z,98155.03
2018-07-31T15:23:50.504Z,98164.59
2018-07-31T15:26:19.219Z,98158.66
2018-07-31T15:28:47.672Z,98154.52
2018-07-31T15:31:16.174Z,98151.94
2018-07-31T15:33:44.709Z,98155.86
2018-07-31T15:36:13.127Z,98146.89
2018-07-31T15:38:41.560Z,98153.04
2018-07-31T15:41:10.056Z,98152.16
2018-07-31T15:43:38.495Z,98153.27
2018-07-31T15:46:07.012Z,98147.48
2018-07-31T15:48:35.763Z,98136.95
2018-07-31T15:51:04.284Z,98147.23
2018-07-31T15:53:32.720Z,98142.70
2018-07-31T15:56:01.189Z,98143.81
2018-07-31T15:58:29.722Z,98148.58
2018-07-31T16:00:58.239Z,98144.52
2018-07-31T16:03:26.774Z,98147.77
2018-07-31T16:05:55.228Z,98151.78
2018-07-31T16:08:23.669Z,98140.25
2018-07-31T16:10:52.262Z,98147.64
2018-07-31T16:13:20.705Z,98143.59
2018-07-31T16:15:49.377Z,98148.26
2018-07-31T16:18:17.859Z,98143.28
2018-07-31T16:20:46.336Z,98139.11
2018-07-31T16:23:14.885Z,98142.89
2018-07-31T16:25:43.457Z,98147.13
2018-07-31T16:28:12.073Z,98140.75
2018-07-31T16:30:40.523Z,98141.81
2018-07-31T16:33:09.016Z,98146.23
2018-07-31T16:35:37.527Z,98145.80
2018-07-31T16:38:06.347Z,98146.40
2018-07-31T16:40:34.811Z,98140.87
2018-07-31T16:43:03.313Z,98142.89
2018-07-31T16:45:31.859Z,98141.39
2018-07-31T16:48:00.355Z,98140.23
2018-07-31T16:50:28.864Z,98146.23
2018-07-31T16:52:57.299Z,98137.57
2018-07-31T16:55:25.687Z,98137.07
2018-07-31T16:57:54.139Z,98138.85
2018-07-31T17:00:22.636Z,98141.81
2018-07-31T17:02:51.136Z,98141.27
2018-07-31T17:05:19.687Z,98141.27
2018-07-31T17:07:48.225Z,98144.36
2018-07-31T17:10:16.643Z,98148.25
2018-07-31T17:12:45.071Z,98142.75
2018-07-31T17:15:13.507Z,98139.36
2018-07-31T17:17:42.304Z,98136.61
2018-07-31T17:20:11.052Z,98140.44
2018-07-31T17:22:39.646Z,98131.53
2018-07-31T17:25:08.087Z,98134.38
2018-07-31T17:27:36.558Z,98131.28
2018-07-31T17:30:05.800Z,98136.81
2018-07-31T17:32:34.305Z,98137.56
2018-07-31T17:35:02.828Z,98140.59
2018-07-31T17:37:31.227Z,98133.30
2018-07-31T17:39:59.999Z,98138.44
2018-07-31T17:42:28.472Z,98138.25
2018-07-31T17:44:57.195Z,98143.28
2018-07-31T17:47:25.711Z,98144.47
2018-07-31T17:49:54.163Z,98136.92
2018-07-31T17:52:22.747Z,98142.42
2018-07-31T17:54:51.414Z,98145.15
2018-07-31T17:57:19.890Z,98143.16
2018-07-31T17:59:48.335Z,98144.17
2018-07-31T18:02:16.739Z,98139.22
2018-07-31T18:04:45.751Z,98140.00
2018-07-31T18:07:14.200Z,98143.23
2018-07-31T18:09:42.660Z,98147.69
2018-07-31T18:12:11.187Z,98151.98
2018-07-31T18:14:39.659Z,98153.77
2018-07-31T18:17:08.030Z,98149.68
2018-07-31T18:19:36.456Z,98150.34
2018-07-31T18:22:05.588Z,98157.42
2018-07-31T18:24:34.083Z,98157.93
2018-07-31T18:27:02.652Z,98159.80
2018-07-31T18:29:31.136Z,98158.34
2018-07-31T18:32:00.396Z,98151.22
2018-07-31T18:34:29.241Z,98154.11
2018-07-31T18:36:57.660Z,98154.77
2018-07-31T18:39:26.112Z,98160.06
2018-07-31T18:41:54.587Z,98160.06
2018-07-31T18:44:23.075Z,98161.31
2018-07-31T18:46:51.711Z,98164.67
2018-07-31T18:49:20.369Z,98167.27
2018-07-31T18:51:49.087Z,98165.95
2018-07-31T18:54:17.656Z,98165.70
2018-07-31T18:56:46.100Z,98161.08
2018-07-31T18:59:14.543Z,98169.02
2018-07-31T19:01:43.048Z,98169.63
2018-07-31T19:04:11.575Z,98171.28
2018-07-31T19:06:40.026Z,98174.89
2018-07-31T19:09:12.597Z,98175.78
2018-07-31T19:11:42.783Z,98173.42
2018-07-31T19:14:11.463Z,98180.05
2018-07-31T19:16:39.983Z,98181.98
2018-07-31T19:19:08.623Z,98186.00
2018-07-31T19:21:37.527Z,98184.45
2018-07-31T19:24:05.984Z,98179.39
2018-07-31T19:26:34.694Z,98177.83
2018-07-31T19:29:03.264Z,98182.48
2018-07-31T19:31:31.796Z,98185.98
2018-07-31T19:34:00.385Z,98192.98
2018-07-31T19:36:29.132Z,98191.90
2018-07-31T19:38:57.583Z,98198.50
2018-07-31T19:41:26.356Z,98201.08
2018-07-31T19:43:54.940Z,98199.50
2018-07-31T19:46:23.401Z,98204.28
2018-07-31T19:48:52.247Z,98202.13
2018-07-31T19:51:20.699Z,98202.69
2018-07-31T19:53:49.097Z,98209.29
2018-07-31T19:56:17.579Z,98207.56
2018-07-31T19:58:46.091Z,98215.63
2018-07-31T20:01:14.551Z,98208.98
2018-07-31T20:03:43.047Z,98203.27
2018-07-31T20:06:11.528Z,98206.51
2018-07-31T20:08:40.176Z,98203.27
2018-07-31T20:11:08.854Z,98204.23
2018-07-31T20:13:37.375Z,98201.42
2018-07-31T20:16:06.397Z,98212.18
2018-07-31T20:18:35.530Z,98212.91
2018-07-31T20:21:04.380Z,98218.42
2018-07-31T20:23:32.934Z,98215.59
2018-07-31T20:26:01.437Z,98225.31
2018-07-31T20:28:29.874Z,98219.82
2018-07-31T20:30:58.364Z,98219.95
2018-07-31T20:33:26.831Z,98224.16
2018-07-31T20:35:55.312Z,98226.39
2018-07-31T20:38:23.760Z,98228.88
2018-07-31T20:40:52.218Z,98226.41
2018-07-31T20:43:21.215Z,98237.02
2018-07-31T20:45:49.946Z,98230.45
2018-07-31T20:48:18.451Z,98232.84
2018-07-31T20:50:46.890Z,98232.59
2018-07-31T20:53:45.787Z,98231.03
2018-07-31T20:56:14.653Z,98232.16
2018-07-31T20:58:43.124Z,98229.06
2018-07-31T21:01:11.543Z,98233.31
2018-07-31T21:03:40.053Z,98237.35
2018-07-31T21:06:08.444Z,98236.36
2018-07-31T21:08:36.918Z,98235.92
2018-07-31T21:11:05.376Z,98238.52
2018-07-31T21:13:33.830Z,98243.34
2018-07-31T21:16:02.477Z,98243.44
2018-07-31T21:18:30.985Z,98242.36
2018-07-31T21:20:59.588Z,98241.04
2018-07-31T21:23:28.028Z,98247.64
2018-07-31T21:25:56.513Z,98243.81
2018-07-31T21:28:26.503Z,98240.48
2018-07-31T21:30:54.951Z,98237.48
2018-07-31T21:33:23.842Z,98243.17
2018-07-31T21:35:52.266Z,98244.31
2018-07-31T21:38:21.248Z,98242.11
2018-07-31T21:40:49.718Z,98250.75
2018-07-31T21:43:18.246Z,98252.84
2018-07-31T21:45:46.697Z,98249.92
2018-07-31T21:48:15.149Z,98249.70
2018-07-31T21:50:43.660Z,98246.10
2018-07-31T21:53:12.102Z,98248.57
2018-07-31T21:55:40.922Z,98250.25
2018-07-31T21:58:09.343Z,98252.23
2018-07-31T22:00:42.993Z,98249.22
2018-07-31T22:03:11.418Z,98253.46
2018-07-31T22:05:39.892Z,98249.22
2018-07-31T22:08:08.316Z,98256.06
2018-07-31T22:10:36.782Z,98269.17
2018-07-31T22:13:05.207Z,98273.07
2018-07-31T22:15:33.746Z,98279.68
2018-07-31T22:18:02.201Z,98282.77
2018-07-31T22:20:30.638Z,98280.51
2018-07-31T22:22:59.274Z,98284.64
2018-07-31T22:25:27.934Z,98284.72
2018-07-31T22:27:56.668Z,98284.83
2018-07-31T22:30:25.104Z,98286.08
2018-07-31T22:32:54.282Z,98285.56
2018-07-31T22:35:22.690Z,98291.89
2018-07-31T22:37:51.176Z,98292.64
2018-07-31T22:40:19.635Z,98293.16
2018-07-31T22:42:48.136Z,98295.88
2018-07-31T22:45:17.047Z,98254.03
2018-07-31T22:47:45.482Z,98289.14
2018-07-31T22:50:13.898Z,98299.30
2018-07-31T22:52:42.315Z,98292.75
2018-07-31T22:55:10.974Z,98299.30
2018-07-31T22:57:39.389Z,98295.91
2018-07-31T23:00:07.982Z,98293.56
2018-07-31T23:02:38.224Z,98304.53
2018-07-31T23:05:06.756Z,98312.41
2018-07-31T23:07:35.648Z,98307.86
2018-07-31T23:10:04.878Z,98302.09
2018-07-31T23:12:34.169Z,98299.38
2018-07-31T23:15:03.479Z,98299.30
2018-07-31T23:17:32.472Z,98295.55
2018-07-31T23:20:03.667Z,98296.02
2018-07-31T23:22:45.630Z,98295.10
2018-07-31T23:25:14.175Z,98302.72
2018-07-31T23:27:42.619Z,98307.72
2018-07-31T23:30:11.427Z,98311.25
2018-07-31T23:32:40.500Z,98308.03
2018-07-31T23:35:09.027Z,98316.39
2018-07-31T23:37:38.073Z,98315.67
2018-07-31T23:40:07.619Z,98309.37
2018-07-31T23:42:36.056Z,98306.03
2018-07-31T23:45:05.061Z,98301.87
2018-07-31T23:47:33.701Z,98301.75
2018-07-31T23:50:02.669Z,98299.80
2018-07-31T23:52:31.594Z,98296.04
2018-07-31T23:55:00.044Z,98298.60
2018-07-31T23:57:28.776Z,98294.52
2018-07-31T23:59:57.230Z,98289.05
